Aberdeen, North Carolina
Current Conditions -  °F | °C
As of 3:35 AM on Tuesday 21 Oct 2014 (Local Time) from KSOP Reporting Station
Overcast Overcast  
Wind Chill: 14°   Ceiling: 9000
Heat Index: 14°   Visibility: 10mi
Dew Point:   Wind: 3mph
Humidity: 72%   Direction: 240°WSW
Pressure: 29.94"   Gusts: NA
Location:  35.13°N, 79.43°W
Report Text: KSOP 210735Z AUTO 24003KT 10SM OVC090 14/09 A2994 RMK AO1
Loading
Personal Weather Stations






























Interactive Weather Map
Tropical Storm Tracking
New forecast layout! Learn more

10-Day Weather Forecast

Advertisements
Track Severe Weather on mobile